Time;durP1;ratioP1;P1;durP2;ratioP2;P2;SDS_P1;SDS_P2;PMS_P1;PMS_P2;Temp;Humidity;BMP_temperature;BMP_pressure;BME280_temperature;BME280_humidity;BME280_pressure;Samples;Min_cycle;Max_cycle;Signal;HPM_P1;HPM_P2
2022/08/17 00:01:06;;;;;;;1.40;0.87;;;19.20;99.90;;;;;;4974171;28;20270;-70
2022/08/17 00:03:37;;;;;;;0.67;0.63;;;18.90;99.90;;;;;;4974008;28;20229;-71
2022/08/17 00:06:11;;;;;;;0.80;0.73;;;19.00;99.90;;;;;;4974371;28;20189;-69
2022/08/17 00:08:40;;;;;;;1.53;0.73;;;19.60;99.90;;;;;;4974255;28;20191;-69
2022/08/17 00:11:29;;;;;;;0.97;0.80;;;20.30;99.90;;;;;;4974145;28;20694;-71
2022/08/17 00:14:01;;;;;;;1.20;0.70;;;20.40;99.90;;;;;;4973704;28;20309;-72
2022/08/17 00:16:33;;;;;;;1.83;0.90;;;20.50;99.90;;;;;;4973844;28;20183;-72
2022/08/17 00:19:03;;;;;;;2.00;0.87;;;20.40;99.90;;;;;;4956470;28;20239;-72
2022/08/17 00:21:31;;;;;;;1.97;1.00;;;20.40;99.90;;;;;;4973972;28;20187;-70
2022/08/17 00:23:58;;;;;;;1.00;0.73;;;20.70;99.90;;;;;;4973861;28;20180;-70
2022/08/17 00:26:28;;;;;;;1.40;0.80;;;20.60;99.90;;;;;;4972150;28;20682;-69
2022/08/17 00:28:56;;;;;;;2.23;0.93;;;20.80;99.90;;;;;;4973739;28;20176;-71
2022/08/17 00:31:23;;;;;;;3.20;0.80;;;21.30;99.90;;;;;;4956213;28;20190;-71
2022/08/17 00:33:52;;;;;;;3.40;0.63;;;21.60;99.90;;;;;;4957378;28;20714;-72
2022/08/17 00:36:22;;;;;;;1.20;0.70;;;21.60;99.90;;;;;;4954230;29;20190;-70
2022/08/17 00:38:50;;;;;;;1.87;0.80;;;21.60;99.90;;;;;;4954285;29;20188;-74
2022/08/17 00:41:22;;;;;;;1.83;0.90;;;21.30;99.90;;;;;;4954243;29;20211;-71
2022/08/17 00:43:56;;;;;;;1.20;0.67;;;21.40;99.90;;;;;;4954323;29;20545;-70
2022/08/17 00:46:34;;;;;;;0.70;0.70;;;21.90;99.90;;;;;;4973223;28;20210;-72
2022/08/17 00:49:03;;;;;;;0.73;0.60;;;21.80;99.90;;;;;;4973628;28;20196;-70
2022/08/17 00:51:43;;;;;;;1.73;0.90;;;21.60;99.90;;;;;;4973193;28;20266;-70
2022/08/17 00:54:13;;;;;;;1.30;0.90;;;21.20;99.90;;;;;;4973201;28;20214;-69
2022/08/17 00:56:48;;;;;;;3.37;0.90;;;21.50;99.90;;;;;;4973137;28;20261;-70
2022/08/17 00:59:20;;;;;;;1.50;0.80;;;21.70;99.90;;;;;;4972879;28;20187;-72
2022/08/17 01:01:49;;;;;;;0.87;0.80;;;21.80;99.90;;;;;;4972961;28;20225;-69
2022/08/17 01:04:22;;;;;;;3.03;0.70;;;22.10;99.90;;;;;;4973140;28;20191;-70
2022/08/17 01:06:50;;;;;;;0.70;0.70;;;22.20;97.40;;;;;;4972074;28;20190;-71
2022/08/17 01:09:19;;;;;;;0.70;0.70;;;22.50;97.70;;;;;;4973016;28;20322;-73
2022/08/17 01:11:51;;;;;;;0.90;0.70;;;22.40;96.20;;;;;;4972814;28;20185;-73
2022/08/17 01:14:23;;;;;;;2.03;0.83;;;22.70;99.10;;;;;;4972463;28;20305;-72
2022/08/17 01:16:53;;;;;;;0.90;0.80;;;23.10;93.00;;;;;;4972840;28;20478;-70
2022/08/17 01:19:27;;;;;;;0.87;0.80;;;23.30;93.50;;;;;;4972355;28;20230;-71
2022/08/17 01:22:08;;;;;;;0.57;0.53;;;23.80;89.70;;;;;;4972732;28;20655;-70
2022/08/17 01:24:39;;;;;;;2.90;0.93;;;23.50;85.80;;;;;;4973023;28;20206;-70
2022/08/17 01:27:08;;;;;;;1.20;0.63;;;23.40;84.90;;;;;;4971779;28;20330;-71
2022/08/17 01:29:38;;;;;;;1.20;0.63;;;23.30;74.20;;;;;;4972435;28;20529;-71
2022/08/17 01:32:07;;;;;;;1.80;0.87;;;23.20;78.20;;;;;;4972660;28;20720;-71
2022/08/17 01:34:35;;;;;;;1.47;0.80;;;22.60;78.80;;;;;;4972601;28;20702;-70
2022/08/17 01:37:02;;;;;;;0.87;0.50;;;22.50;78.60;;;;;;4971591;28;20183;-71
2022/08/17 01:39:32;;;;;;;1.27;0.60;;;22.90;73.50;;;;;;4972596;28;20191;-72
2022/08/17 01:42:08;;;;;;;0.70;0.50;;;22.90;74.30;;;;;;4972225;28;20185;-71
2022/08/17 01:44:35;;;;;;;0.73;0.70;;;23.40;65.40;;;;;;4972591;28;20227;-71
2022/08/17 01:47:03;;;;;;;0.60;0.60;;;23.70;63.20;;;;;;4972051;28;20183;-71
2022/08/17 01:49:31;;;;;;;1.43;1.00;;;23.70;66.70;;;;;;4972131;28;20693;-70
2022/08/17 01:52:03;;;;;;;0.73;0.63;;;24.10;60.60;;;;;;4975560;28;20179;-69
2022/08/17 01:54:31;;;;;;;1.03;0.60;;;24.00;58.80;;;;;;4971028;28;20588;-69
2022/08/17 01:56:58;;;;;;;1.40;0.73;;;23.80;57.80;;;;;;4972488;28;20178;-70
2022/08/17 01:59:26;;;;;;;0.60;0.57;;;23.70;57.40;;;;;;4988351;28;20186;-68
2022/08/17 02:01:53;;;;;;;1.20;0.70;;;23.50;55.70;;;;;;4974356;28;20654;-68
2022/08/17 02:04:21;;;;;;;1.77;0.70;;;24.00;58.80;;;;;;4991868;28;20241;-68
2022/08/17 02:06:48;;;;;;;3.80;0.73;;;24.30;54.70;;;;;;4972875;28;20191;-67
2022/08/17 02:09:15;;;;;;;0.97;0.80;;;24.10;50.60;;;;;;4972615;28;20181;-69
2022/08/17 02:11:43;;;;;;;1.30;0.57;;;24.40;58.30;;;;;;4972475;28;20171;-70
2022/08/17 02:14:11;;;;;;;2.30;0.60;;;23.90;52.30;;;;;;4971374;28;20593;-70
2022/08/17 02:16:40;;;;;;;1.03;0.80;;;23.20;51.70;;;;;;4972381;28;20183;-70
2022/08/17 02:19:11;;;;;;;0.80;0.70;;;23.20;53.40;;;;;;4974939;28;20301;-71
2022/08/17 02:21:40;;;;;;;0.60;0.50;;;22.90;54.10;;;;;;4975400;28;20221;-70
2022/08/17 02:24:11;;;;;;;1.00;0.60;;;23.60;58.80;;;;;;4964449;28;20195;-71
2022/08/17 02:26:38;;;;;;;0.70;0.50;;;24.10;53.90;;;;;;4976126;28;20561;-71
2022/08/17 02:29:06;;;;;;;3.80;0.83;;;23.80;54.80;;;;;;4975728;28;20194;-72
2022/08/17 02:31:34;;;;;;;1.93;0.83;;;23.80;54.60;;;;;;4976045;28;20183;-73
2022/08/17 02:34:02;;;;;;;0.77;0.70;;;23.90;55.50;;;;;;4975378;28;20261;-70
2022/08/17 02:36:29;;;;;;;3.03;0.70;;;23.80;50.80;;;;;;4975981;28;20211;-70
2022/08/17 02:38:57;;;;;;;2.90;0.70;;;24.10;54.30;;;;;;4979216;28;20194;-70
2022/08/17 02:41:24;;;;;;;0.80;0.80;;;24.50;54.30;;;;;;4992902;28;20674;-69
2022/08/17 02:43:52;;;;;;;0.50;0.50;;;24.50;51.30;;;;;;4990832;28;20180;-71
2022/08/17 02:46:19;;;;;;;0.90;0.60;;;24.40;50.50;;;;;;4974993;28;20195;-70
2022/08/17 02:48:47;;;;;;;1.10;0.70;;;24.80;51.20;;;;;;4964828;29;20171;-70
2022/08/17 02:51:15;;;;;;;1.03;0.70;;;25.20;53.90;;;;;;4960577;29;20267;-70
2022/08/17 02:53:43;;;;;;;0.77;0.70;;;25.30;49.60;;;;;;4956363;29;20219;-71
2022/08/17 02:56:10;;;;;;;0.73;0.60;;;25.00;46.50;;;;;;4956293;29;20184;-71
2022/08/17 02:58:38;;;;;;;1.60;0.60;;;24.60;48.70;;;;;;4949937;28;20230;-69
2022/08/17 03:01:07;;;;;;;1.00;0.60;;;24.40;47.80;;;;;;4975439;28;20179;-69
2022/08/17 03:03:37;;;;;;;1.30;0.60;;;23.90;53.00;;;;;;4975348;28;20183;-71
2022/08/17 03:06:06;;;;;;;3.07;0.60;;;24.20;53.10;;;;;;4975242;28;20682;-71
2022/08/17 03:08:35;;;;;;;0.90;0.60;;;24.40;51.20;;;;;;4975356;28;20179;-70
2022/08/17 03:11:02;;;;;;;1.37;0.67;;;24.60;50.00;;;;;;4975061;28;20612;-71
2022/08/17 03:13:30;;;;;;;3.53;0.50;;;24.80;48.90;;;;;;4960949;28;20218;-69
2022/08/17 03:15:57;;;;;;;1.23;0.60;;;24.80;48.90;;;;;;4985127;28;20191;-71
2022/08/17 03:18:26;;;;;;;1.03;0.70;;;25.10;52.30;;;;;;4994379;28;20615;-73
2022/08/17 03:21:00;;;;;;;1.63;0.70;;;25.10;48.80;;;;;;4977298;28;20206;-71
2022/08/17 03:23:28;;;;;;;2.23;0.73;;;25.10;51.70;;;;;;4974892;28;20179;-72
2022/08/17 03:25:55;;;;;;;0.70;0.47;;;25.10;49.70;;;;;;4975041;28;20188;-74
2022/08/17 03:28:24;;;;;;;1.13;0.60;;;24.50;49.30;;;;;;4974149;28;20644;-70
2022/08/17 03:30:51;;;;;;;1.33;0.60;;;24.70;48.20;;;;;;4974861;28;20186;-70
2022/08/17 03:33:19;;;;;;;1.63;0.70;;;24.60;48.40;;;;;;4993757;28;20190;-69
2022/08/17 03:35:47;;;;;;;1.50;0.70;;;24.30;48.90;;;;;;4989319;28;20179;-72
2022/08/17 03:38:16;;;;;;;1.20;0.63;;;24.10;49.90;;;;;;4974523;28;20192;-70
2022/08/17 03:40:47;;;;;;;0.70;0.70;;;24.30;48.60;;;;;;4974800;28;20179;-72
2022/08/17 03:43:16;;;;;;;1.13;0.60;;;24.70;49.10;;;;;;4974193;28;20517;-72
2022/08/17 03:57:02;;;;;;;1.50;0.80;;;24.80;46.60;;;;;;4974834;28;20225;-69
2022/08/17 03:59:30;;;;;;;4.23;0.70;;;24.60;48.50;;;;;;4955127;29;20195;-76
2022/08/17 04:02:07;;;;;;;1.97;0.77;;;24.80;46.60;;;;;;4937818;29;20234;-71
2022/08/17 04:04:36;;;;;;;3.10;0.50;;;24.60;48.90;;;;;;4974198;28;20563;-70
2022/08/17 04:07:05;;;;;;;3.17;0.90;;;24.60;51.30;;;;;;4957328;28;20207;-73
2022/08/17 04:09:32;;;;;;;2.63;0.70;;;24.50;45.80;;;;;;4956888;28;20210;-70
2022/08/17 04:12:00;;;;;;;1.80;0.70;;;24.70;48.50;;;;;;4974091;28;20183;-70
2022/08/17 04:14:34;;;;;;;3.10;0.70;;;24.90;50.10;;;;;;4974124;28;20314;-74
2022/08/17 04:17:03;;;;;;;4.10;0.87;;;24.70;48.60;;;;;;4974088;28;20175;-71
2022/08/17 04:19:31;;;;;;;0.60;0.60;;;24.20;46.00;;;;;;4974014;28;20238;-72
2022/08/17 04:21:58;;;;;;;1.50;1.07;;;23.70;48.50;;;;;;4973524;28;20210;-71
2022/08/17 04:24:27;;;;;;;1.50;0.80;;;23.90;52.60;;;;;;4972857;28;20230;-73
2022/08/17 04:26:54;;;;;;;2.30;0.70;;;23.90;48.80;;;;;;4974137;28;20182;-69
2022/08/17 04:29:22;;;;;;;3.20;0.97;;;23.80;52.50;;;;;;4973804;28;20259;-70
2022/08/17 04:31:50;;;;;;;2.20;0.57;;;23.60;49.70;;;;;;4973457;28;20179;-69
2022/08/17 04:34:18;;;;;;;1.77;0.70;;;23.50;51.30;;;;;;4973679;28;20264;-69
2022/08/17 04:36:45;;;;;;;3.37;0.90;;;23.00;51.50;;;;;;4973064;28;20246;-72
2022/08/17 04:39:16;;;;;;;1.03;0.70;;;23.00;52.80;;;;;;4973569;28;20191;-73
2022/08/17 04:44:29;;;;;;;2.83;0.70;;;22.70;55.20;;;;;;4973514;28;20257;-72
2022/08/17 04:46:56;;;;;;;0.83;0.70;;;22.80;52.80;;;;;;4973224;28;20662;-70
2022/08/17 04:49:24;;;;;;;2.43;0.90;;;22.90;55.10;;;;;;4956143;28;20206;-70
2022/08/17 04:51:54;;;;;;;1.93;0.90;;;22.70;54.80;;;;;;4972817;28;20206;-71
2022/08/17 04:54:22;;;;;;;2.40;0.70;;;22.80;53.40;;;;;;4972719;28;20213;-71
2022/08/17 04:56:50;;;;;;;1.07;0.70;;;22.80;55.70;;;;;;4972935;28;20560;-71
2022/08/17 04:59:22;;;;;;;3.03;0.90;;;22.70;56.50;;;;;;4973002;28;20654;-71
2022/08/17 05:01:51;;;;;;;1.47;0.80;;;22.80;54.20;;;;;;4973248;28;20178;-71
2022/08/17 05:04:24;;;;;;;1.00;0.63;;;22.90;53.60;;;;;;4973267;28;20259;-73
2022/08/17 05:06:53;;;;;;;4.17;0.70;;;22.30;54.40;;;;;;4973068;28;20219;-72
2022/08/17 05:09:21;;;;;;;2.67;0.80;;;22.30;58.20;;;;;;4973135;28;20195;-71
2022/08/17 05:11:48;;;;;;;1.03;0.53;;;22.60;64.30;;;;;;4973122;28;20285;-72
2022/08/17 05:14:16;;;;;;;0.67;0.60;;;22.40;57.30;;;;;;4972817;28;20215;-69
2022/08/17 05:16:44;;;;;;;1.20;0.70;;;22.10;59.80;;;;;;4973063;28;20187;-70
2022/08/17 05:19:11;;;;;;;1.17;0.80;;;22.20;61.20;;;;;;4972604;28;20239;-69
2022/08/17 05:21:39;;;;;;;0.77;0.50;;;22.20;60.50;;;;;;4972949;28;20179;-71
2022/08/17 05:24:07;;;;;;;1.63;0.80;;;22.00;59.60;;;;;;4973078;28;20549;-70
2022/08/17 05:26:35;;;;;;;0.90;0.80;;;21.90;61.70;;;;;;4955751;28;20190;-71
2022/08/17 05:29:03;;;;;;;1.10;0.93;;;21.60;64.10;;;;;;4972658;28;20191;-70
2022/08/17 05:31:31;;;;;;;2.67;1.07;;;21.70;67.90;;;;;;4972751;28;20184;-70
2022/08/17 05:33:58;;;;;;;1.03;0.70;;;21.50;66.60;;;;;;4972874;28;20219;-70
2022/08/17 05:36:26;;;;;;;2.80;1.70;;;21.70;70.30;;;;;;4972566;28;20187;-71
2022/08/17 05:38:54;;;;;;;1.40;1.20;;;21.60;66.70;;;;;;4972116;28;20206;-73
2022/08/17 05:41:21;;;;;;;3.83;3.00;;;21.50;66.20;;;;;;4972668;28;20309;-69
2022/08/17 05:43:48;;;;;;;1.00;0.80;;;21.50;69.60;;;;;;4955156;28;20560;-70
2022/08/17 05:46:34;;;;;;;3.30;0.87;;;21.30;69.40;;;;;;4970962;28;20191;-70
2022/08/17 05:49:07;;;;;;;1.43;0.83;;;21.20;72.90;;;;;;4962674;28;20293;-76
2022/08/17 05:51:37;;;;;;;4.90;1.00;;;21.20;75.90;;;;;;4973501;28;20183;-75
2022/08/17 05:54:24;;;;;;;4.03;1.47;;;21.20;92.70;;;;;;4978301;28;20227;-71
2022/08/17 05:57:18;;;;;;;3.27;1.10;;;21.00;99.90;;;;;;4979974;28;20186;-69
2022/08/17 06:00:10;;;;;;;3.63;1.47;;;20.70;99.90;;;;;;4994366;28;20335;-70
2022/08/17 06:02:53;;;;;;;3.60;1.10;;;20.40;99.90;;;;;;4997113;28;20203;-72
2022/08/17 06:05:48;;;;;;;2.67;1.20;;;20.30;99.90;;;;;;4984341;28;20189;-75
2022/08/17 06:08:33;;;;;;;3.47;1.20;;;20.00;99.90;;;;;;4979744;28;20182;-76
2022/08/17 06:11:09;;;;;;;4.03;1.53;;;19.70;99.90;;;;;;4979117;28;20187;-73
2022/08/17 06:14:04;;;;;;;3.23;1.40;;;19.40;99.90;;;;;;4961494;28;20218;-72
2022/08/17 06:16:37;;;;;;;5.20;1.30;;;19.30;99.90;;;;;;4941716;29;20210;-73
2022/08/17 06:19:15;;;;;;;5.43;1.53;;;19.10;99.90;;;;;;4959915;29;20240;-71
2022/08/17 06:21:46;;;;;;;3.93;1.50;;;19.10;99.90;;;;;;4960702;29;20238;-72
2022/08/17 06:24:22;;;;;;;4.90;1.20;;;19.00;99.90;;;;;;4965193;28;20203;-72
2022/08/17 06:26:52;;;;;;;7.20;1.63;;;19.00;99.90;;;;;;4980198;28;20253;-71
2022/08/17 06:29:47;;;;;;;3.03;1.70;;;18.80;99.90;;;;;;4962666;28;20286;-71
2022/08/17 06:32:16;;;;;;;3.77;1.53;;;18.80;99.90;;;;;;4964016;28;20186;-71
2022/08/17 06:34:45;;;;;;;8.10;1.10;;;18.70;99.90;;;;;;4960220;28;20217;-73
2022/08/17 06:37:39;;;;;;;8.53;1.60;;;18.70;99.90;;;;;;4979389;28;20197;-71
2022/08/17 06:40:36;;;;;;;3.90;1.80;;;18.50;99.90;;;;;;4980360;28;20631;-70
2022/08/17 06:43:15;;;;;;;4.27;2.03;;;18.40;99.90;;;;;;4980216;28;20183;-70
2022/08/17 06:45:48;;;;;;;6.70;2.07;;;18.30;99.90;;;;;;4980194;28;20182;-70
2022/08/17 06:48:31;;;;;;;8.40;2.87;;;18.20;99.90;;;;;;4980279;28;20176;-71
2022/08/17 06:51:05;;;;;;;5.10;1.90;;;18.20;99.90;;;;;;4980129;28;20171;-71
2022/08/17 06:54:09;;;;;;;3.70;1.60;;;18.20;99.90;;;;;;4980157;28;20282;-71
2022/08/17 06:56:52;;;;;;;4.43;1.30;;;18.10;99.90;;;;;;4910930;28;20224;-74
2022/08/17 06:59:27;;;;;;;5.97;1.40;;;18.00;99.90;;;;;;4980157;28;20177;-75
2022/08/17 07:01:55;;;;;;;6.30;1.90;;;17.90;99.90;;;;;;4980108;28;20741;-76
2022/08/17 07:04:28;;;;;;;11.63;1.60;;;17.80;99.90;;;;;;4977709;28;20211;-71
2022/08/17 07:10:01;;;;;;;3.30;1.23;;;17.60;99.90;;;;;;4977341;28;20669;-71
2022/08/17 07:12:37;;;;;;;3.53;1.30;;;17.50;99.90;;;;;;4976946;28;20666;-73
2022/08/17 07:15:20;;;;;;;7.13;1.73;;;17.40;99.90;;;;;;4959971;28;20218;-71
2022/08/17 07:17:48;;;;;;;3.33;1.70;;;17.20;99.90;;;;;;4976622;28;20273;-75
2022/08/17 07:20:21;;;;;;;3.73;1.70;;;17.10;99.90;;;;;;4976902;28;20195;-70
2022/08/17 07:23:02;;;;;;;5.00;1.40;;;17.10;99.90;;;;;;4976584;28;20175;-74
2022/08/17 07:25:30;;;;;;;4.70;1.37;;;17.00;99.90;;;;;;4976551;28;20266;-72
2022/08/17 07:28:01;;;;;;;3.63;1.57;;;16.90;99.90;;;;;;4976460;28;20175;-71
2022/08/17 07:30:44;;;;;;;8.50;1.60;;;16.70;99.90;;;;;;4976497;28;20221;-73
2022/08/17 07:33:18;;;;;;;2.00;1.00;;;16.60;99.90;;;;;;4976175;28;20317;-71
2022/08/17 07:35:48;;;;;;;3.03;1.17;;;16.50;99.90;;;;;;4976266;28;20198;-70
2022/08/17 07:38:27;;;;;;;6.87;1.37;;;16.40;99.90;;;;;;4976074;28;20178;-71
2022/08/17 07:41:04;;;;;;;7.20;3.87;;;16.30;99.90;;;;;;4976397;28;20206;-69
2022/08/17 07:43:41;;;;;;;3.33;2.07;;;16.10;99.90;;;;;;4976440;28;20266;-75
2022/08/17 07:49:13;;;;;;;5.33;2.70;;;15.90;99.90;;;;;;4976614;28;20185;-74
2022/08/17 07:51:46;;;;;;;5.83;2.40;;;15.80;99.90;;;;;;4975967;28;20178;-70
2022/08/17 07:54:24;;;;;;;5.80;2.40;;;15.70;99.90;;;;;;4958681;28;20530;-69
2022/08/17 07:57:12;;;;;;;5.47;2.17;;;15.50;99.90;;;;;;4975813;28;20179;-70
2022/08/17 08:00:04;;;;;;;5.97;2.20;;;15.50;99.90;;;;;;4976201;28;20203;-73
2022/08/17 08:02:39;;;;;;;9.27;4.70;;;15.40;99.90;;;;;;4968172;28;20187;-75
2022/08/17 08:05:26;;;;;;;8.80;4.87;;;15.20;99.90;;;;;;4976037;28;20178;-70
2022/08/17 08:08:03;;;;;;;5.17;3.00;;;15.10;99.90;;;;;;4975758;28;20194;-69
2022/08/17 08:10:39;;;;;;;6.00;2.30;;;15.00;99.90;;;;;;4976152;28;20634;-70
2022/08/17 08:13:20;;;;;;;8.73;3.20;;;14.90;99.90;;;;;;4975793;28;20190;-72
2022/08/17 08:15:52;;;;;;;6.57;2.83;;;14.80;99.90;;;;;;4975690;28;20193;-70
2022/08/17 08:18:31;;;;;;;10.57;6.53;;;14.70;99.90;;;;;;4975361;28;20237;-70
2022/08/17 08:21:08;;;;;;;12.60;6.00;;;14.70;99.90;;;;;;4975740;28;20187;-69
2022/08/17 08:24:00;;;;;;;21.90;11.53;;;14.60;99.90;;;;;;4975454;28;20178;-72
2022/08/17 08:26:54;;;;;;;13.60;7.37;;;14.40;99.90;;;;;;4975690;28;20197;-69
2022/08/17 08:29:29;;;;;;;6.30;3.67;;;14.30;99.90;;;;;;4975704;28;20257;-75
2022/08/17 08:32:21;;;;;;;8.93;3.13;;;14.30;99.90;;;;;;4975318;28;20232;-71
2022/08/17 08:35:30;;;;;;;5.03;2.67;;;14.20;99.90;;;;;;4957837;28;20641;-71
2022/08/17 08:38:18;;;;;;;7.60;3.10;;;14.10;99.90;;;;;;4954008;28;20186;-73
2022/08/17 08:40:51;;;;;;;8.67;2.93;;;14.00;99.90;;;;;;4957944;28;20561;-70
2022/08/17 08:43:25;;;;;;;21.40;11.70;;;13.90;99.90;;;;;;4975701;28;20211;-72
2022/08/17 08:45:57;;;;;;;17.20;9.67;;;13.90;99.90;;;;;;4975337;28;20270;-69
2022/08/17 08:48:47;;;;;;;11.90;6.40;;;13.80;99.90;;;;;;4975473;28;20179;-70
2022/08/17 08:51:40;;;;;;;9.97;4.00;;;13.70;99.90;;;;;;4975057;28;20183;-73
2022/08/17 08:54:16;;;;;;;8.70;3.63;;;13.70;99.90;;;;;;4975550;28;20229;-70
2022/08/17 08:57:00;;;;;;;9.70;4.00;;;13.70;99.90;;;;;;4975622;28;20175;-73
2022/08/17 08:59:48;;;;;;;5.67;2.90;;;13.60;99.90;;;;;;4975620;28;20181;-72
2022/08/17 09:02:34;;;;;;;5.37;2.87;;;13.50;99.90;;;;;;4975400;28;20182;-74
2022/08/17 09:05:32;;;;;;;7.00;2.70;;;13.40;99.90;;;;;;4974802;28;20179;-71
2022/08/17 09:08:05;;;;;;;7.80;3.33;;;13.30;99.90;;;;;;4974709;28;20209;-70
2022/08/17 09:11:03;;;;;;;10.70;3.13;;;13.20;99.90;;;;;;4974840;28;20170;-71
2022/08/17 09:13:39;;;;;;;10.77;5.50;;;13.20;99.90;;;;;;4957466;28;20193;-70
2022/08/17 09:16:15;;;;;;;6.77;2.93;;;13.20;99.90;;;;;;4974976;28;20510;-70
2022/08/17 09:18:53;;;;;;;14.13;3.17;;;13.20;99.90;;;;;;4974386;28;20771;-69
2022/08/17 09:21:41;;;;;;;4.50;2.50;;;13.10;99.90;;;;;;4974608;28;20177;-71
2022/08/17 09:24:31;;;;;;;6.13;2.93;;;13.10;99.90;;;;;;4974331;28;20544;-70
2022/08/17 09:27:17;;;;;;;9.97;2.70;;;13.00;99.90;;;;;;4973688;28;20196;-73
2022/08/17 09:30:01;;;;;;;8.17;3.03;;;12.90;99.90;;;;;;4974437;28;20176;-69
2022/08/17 09:32:42;;;;;;;11.60;3.57;;;12.90;99.90;;;;;;4956856;28;20648;-69
2022/08/17 09:35:36;;;;;;;11.27;3.60;;;13.00;99.90;;;;;;4973340;28;20262;-70
2022/08/17 09:38:17;;;;;;;7.77;3.20;;;13.00;99.90;;;;;;4949209;28;20545;-70
2022/08/17 09:41:00;;;;;;;8.43;4.00;;;13.00;99.90;;;;;;4973849;28;20188;-68
2022/08/17 09:43:29;;;;;;;19.33;6.67;;;12.90;99.90;;;;;;4974353;28;20177;-69
2022/08/17 09:46:22;;;;;;;29.67;16.07;;;12.80;99.90;;;;;;4974160;28;20179;-69
2022/08/17 09:48:56;;;;;;;14.73;6.40;;;12.70;99.90;;;;;;4966846;28;20293;-69
2022/08/17 09:52:01;;;;;;;7.60;3.80;;;12.60;99.90;;;;;;4974116;28;20173;-70
2022/08/17 09:54:34;;;;;;;8.47;3.40;;;12.50;99.90;;;;;;4965051;28;20272;-68
2022/08/17 09:57:17;;;;;;;8.50;3.30;;;12.50;99.90;;;;;;4956749;28;20212;-69
2022/08/17 10:00:38;;;;;;;8.63;3.70;;;12.40;99.90;;;;;;4974402;28;20184;-70
2022/08/17 10:03:27;;;;;;;11.17;4.80;;;12.30;99.90;;;;;;4973020;28;20200;-69
2022/08/17 10:06:15;;;;;;;11.80;4.93;;;12.30;99.90;;;;;;4974126;28;20189;-70
2022/08/17 10:09:06;;;;;;;10.87;5.03;;;12.20;99.90;;;;;;4956715;28;20229;-69
2022/08/17 10:15:04;;;;;;;13.13;6.70;;;12.30;99.90;;;;;;4974334;28;20225;-70
2022/08/17 10:17:32;;;;;;;11.57;5.97;;;12.30;99.90;;;;;;4973761;28;20175;-69
2022/08/17 10:20:37;;;;;;;15.03;6.23;;;12.40;99.90;;;;;;4974610;28;20184;-70
2022/08/17 10:26:27;;;;;;;12.10;6.10;;;12.40;99.90;;;;;;4974086;28;20316;-69
2022/08/17 10:29:19;;;;;;;14.00;5.63;;;12.30;99.90;;;;;;4972502;28;20195;-69
2022/08/17 10:31:58;;;;;;;10.40;5.57;;;12.10;99.90;;;;;;4973914;28;20181;-69
2022/08/17 10:34:46;;;;;;;11.27;5.77;;;12.00;99.90;;;;;;4957104;28;20316;-71
2022/08/17 10:37:23;;;;;;;13.20;5.97;;;11.90;99.90;;;;;;4956311;28;20636;-69
2022/08/17 10:40:19;;;;;;;13.93;6.43;;;11.80;99.90;;;;;;4977417;28;20189;-69
2022/08/17 10:43:03;;;;;;;12.10;5.80;;;11.70;99.90;;;;;;4977591;28;20240;-70
2022/08/17 10:46:00;;;;;;;10.37;5.57;;;11.60;99.90;;;;;;4977310;28;20565;-68
2022/08/17 10:48:37;;;;;;;17.90;6.10;;;11.60;99.90;;;;;;4977346;28;20638;-69
2022/08/17 10:51:11;;;;;;;13.80;6.57;;;11.50;99.90;;;;;;4977307;28;20185;-69
2022/08/17 10:53:39;;;;;;;13.60;5.43;;;11.50;99.90;;;;;;4977219;28;20231;-70
2022/08/17 10:56:12;;;;;;;10.63;5.27;;;11.50;99.90;;;;;;4977041;28;20190;-69
2022/08/17 10:58:49;;;;;;;11.30;5.40;;;11.50;99.90;;;;;;4977128;28;20181;-69
2022/08/17 11:01:17;;;;;;;12.83;6.47;;;11.40;99.90;;;;;;4977542;28;20182;-71
2022/08/17 11:04:10;;;;;;;14.00;6.13;;;11.40;99.90;;;;;;4976981;28;20192;-69
2022/08/17 11:06:40;;;;;;;14.23;6.00;;;11.30;99.90;;;;;;4959123;28;20251;-69
2022/08/17 11:09:29;;;;;;;11.30;5.37;;;11.30;99.90;;;;;;4976880;28;20213;-71
2022/08/17 11:12:24;;;;;;;8.57;5.40;;;11.20;99.90;;;;;;4977031;28;20187;-69
2022/08/17 11:15:13;;;;;;;13.53;5.97;;;11.20;99.90;;;;;;4976693;28;20215;-70
2022/08/17 11:17:52;;;;;;;12.27;6.63;;;11.20;99.90;;;;;;4976634;28;20175;-70
2022/08/17 11:20:40;;;;;;;10.63;5.70;;;11.20;99.90;;;;;;4976946;28;20645;-69
2022/08/17 11:23:39;;;;;;;12.00;5.83;;;11.10;99.90;;;;;;4959108;28;20608;-69
2022/08/17 11:26:45;;;;;;;12.37;5.30;;;11.10;99.90;;;;;;4967810;28;20601;-70
2022/08/17 11:29:31;;;;;;;8.20;5.20;;;11.00;99.90;;;;;;4976411;28;20508;-70
2022/08/17 11:32:03;;;;;;;8.83;5.60;;;11.00;99.90;;;;;;4976117;28;20548;-69
2022/08/17 11:34:32;;;;;;;12.13;5.47;;;10.90;99.90;;;;;;4976023;28;20216;-68
2022/08/17 11:37:20;;;;;;;14.87;6.23;;;10.80;99.90;;;;;;4975048;28;20244;-69
2022/08/17 11:40:14;;;;;;;9.77;5.77;;;10.80;99.90;;;;;;4958473;28;20215;-70
2022/08/17 11:42:51;;;;;;;12.23;7.07;;;10.80;99.90;;;;;;4975058;28;20216;-69
2022/08/17 11:45:51;;;;;;;13.87;6.67;;;10.70;99.90;;;;;;4975586;28;20214;-69
2022/08/17 11:52:08;;;;;;;13.00;6.40;;;10.60;99.90;;;;;;4975971;28;20195;-69
2022/08/17 11:54:35;;;;;;;9.33;6.00;;;10.60;99.90;;;;;;4976348;28;20311;-69
2022/08/17 11:57:30;;;;;;;12.87;6.17;;;10.50;99.90;;;;;;4976118;28;20230;-68
2022/08/17 12:00:10;;;;;;;10.40;6.17;;;10.50;99.90;;;;;;4976049;28;20177;-68
2022/08/17 12:02:44;;;;;;;11.00;6.00;;;10.50;99.90;;;;;;4975980;28;20658;-69
2022/08/17 12:05:22;;;;;;;14.30;6.60;;;10.40;99.90;;;;;;4976099;28;20178;-70
2022/08/17 12:08:05;;;;;;;13.10;6.03;;;10.40;99.90;;;;;;4976123;28;20241;-71
2022/08/17 12:10:39;;;;;;;10.13;5.67;;;10.30;99.90;;;;;;4976083;28;20183;-71
2022/08/17 12:13:13;;;;;;;14.03;6.60;;;10.20;99.90;;;;;;4975892;28;20179;-70
2022/08/17 12:15:49;;;;;;;7.73;5.50;;;10.20;99.90;;;;;;4975937;28;20261;-68
2022/08/17 12:18:26;;;;;;;14.70;6.53;;;10.30;99.90;;;;;;4975403;28;20233;-68
2022/08/17 12:21:33;;;;;;;13.20;6.40;;;10.30;99.90;;;;;;4975734;28;20631;-69
2022/08/17 12:24:23;;;;;;;10.90;5.57;;;10.20;99.90;;;;;;4972861;28;20194;-68
2022/08/17 12:26:58;;;;;;;9.53;6.13;;;10.10;99.90;;;;;;4948045;28;20726;-69
2022/08/17 12:29:29;;;;;;;16.00;7.33;;;10.20;99.90;;;;;;4958921;28;20175;-70
2022/08/17 12:31:57;;;;;;;12.77;6.60;;;10.20;99.90;;;;;;4975514;28;20181;-69
2022/08/17 12:34:42;;;;;;;13.87;7.13;;;10.20;99.90;;;;;;4975192;28;20286;-69
2022/08/17 12:37:23;;;;;;;10.97;5.90;;;10.10;99.90;;;;;;4975956;28;20267;-68
2022/08/17 12:40:25;;;;;;;11.83;5.90;;;10.00;99.90;;;;;;4975517;28;20266;-69
2022/08/17 12:42:57;;;;;;;14.00;6.20;;;9.90;99.90;;;;;;4975254;28;20632;-69
2022/08/17 12:45:29;;;;;;;9.33;5.43;;;9.90;99.90;;;;;;4957819;28;20179;-69
2022/08/17 12:48:20;;;;;;;12.50;5.67;;;9.80;99.90;;;;;;4975364;28;20178;-70
2022/08/17 12:50:50;;;;;;;11.20;5.57;;;9.80;99.90;;;;;;4975322;28;20206;-71
2022/08/17 12:53:26;;;;;;;13.77;6.00;;;9.80;99.90;;;;;;4975088;28;20627;-70
2022/08/17 12:55:55;;;;;;;10.47;5.67;;;9.70;99.90;;;;;;4975364;28;20666;-70
2022/08/17 12:58:33;;;;;;;10.40;5.77;;;9.70;99.90;;;;;;4975005;28;20186;-68
2022/08/17 13:01:12;;;;;;;11.43;6.20;;;9.70;99.90;;;;;;4974831;28;20175;-67
2022/08/17 13:03:53;;;;;;;17.90;6.70;;;9.60;99.90;;;;;;4974950;28;20202;-72
2022/08/17 13:06:31;;;;;;;10.43;6.17;;;9.70;99.90;;;;;;4942335;28;20192;-70
2022/08/17 13:09:23;;;;;;;13.53;5.90;;;9.70;99.90;;;;;;4958170;28;20193;-69
2022/08/17 13:11:54;;;;;;;13.67;6.60;;;9.70;99.90;;;;;;4974665;28;20253;-71
2022/08/17 13:14:22;;;;;;;11.57;5.83;;;9.70;99.90;;;;;;4973481;28;20210;-68
2022/08/17 13:16:59;;;;;;;10.60;5.77;;;9.60;99.90;;;;;;4974064;28;20211;-69
2022/08/17 13:19:31;;;;;;;9.90;6.00;;;9.60;99.90;;;;;;4974361;28;20318;-68
2022/08/17 13:22:01;;;;;;;10.90;5.80;;;9.50;99.90;;;;;;4974432;28;20186;-68
2022/08/17 13:24:33;;;;;;;11.03;5.57;;;9.40;99.90;;;;;;4957289;28;20629;-67
2022/08/17 13:27:03;;;;;;;16.67;6.33;;;9.30;99.90;;;;;;4971838;28;20666;-68
2022/08/17 13:29:38;;;;;;;11.60;6.03;;;9.30;99.90;;;;;;4974976;28;20186;-69
2022/08/17 13:32:05;;;;;;;10.67;5.73;;;9.30;99.90;;;;;;4974236;28;20186;-70
2022/08/17 13:34:56;;;;;;;12.97;5.97;;;9.30;99.90;;;;;;4974064;28;20231;-71
2022/08/17 13:37:31;;;;;;;10.70;6.37;;;9.20;99.90;;;;;;4974399;28;20547;-68
2022/08/17 13:40:11;;;;;;;11.07;6.27;;;9.10;99.90;;;;;;4974557;28;20186;-67
2022/08/17 13:42:48;;;;;;;14.83;6.80;;;9.10;99.90;;;;;;4974221;28;20183;-68
2022/08/17 13:45:30;;;;;;;11.60;6.03;;;9.00;99.90;;;;;;4974360;28;20187;-70
2022/08/17 13:48:13;;;;;;;12.90;6.57;;;9.00;99.90;;;;;;4974446;28;20180;-68
2022/08/17 13:50:55;;;;;;;11.03;6.40;;;9.00;99.90;;;;;;4974181;28;20273;-67
2022/08/17 13:53:37;;;;;;;13.33;6.53;;;9.00;99.90;;;;;;4973691;28;20714;-69
2022/08/17 13:56:14;;;;;;;10.67;6.60;;;9.00;99.90;;;;;;4974721;28;20205;-70
2022/08/17 13:58:56;;;;;;;13.37;7.33;;;9.00;99.90;;;;;;4974222;28;20187;-68
2022/08/17 14:01:38;;;;;;;12.70;7.00;;;8.90;99.90;;;;;;4974038;28;20186;-71